Glendon, North Carolina
Current Conditions -  °F | °C
As of 12:55 AM on Tuesday 27 Jan 2015 (Local Time) from KSOP Reporting Station
Overcast Overcast  
Wind Chill: 38°   Ceiling: 3500
Heat Index: 41°   Visibility: 10mi
Dew Point: 27°   Wind: 5mph
Humidity: 57%   Direction: 330°NNW
Pressure: 29.71"   Gusts: NA
Location:  35.4616°N, 79.5721°W
Report Text: KSOP 270555Z AUTO 33004KT 10SM OVC035 05/M03 A2971 RMK AO1 10070 20050 52007
Loading
Personal Weather Stations






























Interactive Weather Map New forecast layout! Learn more

10-Day Weather Forecast

Advertisements
Track Severe Weather on mobile